createdAt,value
2022-11-30T00:04:00.439Z,78.90
2022-11-30T00:09:04.688Z,86.32
2022-11-30T00:14:07.616Z,79.82
2022-11-30T00:19:10.387Z,81.82
2022-11-30T00:24:14.494Z,83.13
2022-11-30T00:29:17.278Z,82.80
2022-11-30T00:34:20.045Z,86.00
2022-11-30T00:39:24.145Z,76.35
2022-11-30T00:44:26.880Z,78.05
2022-11-30T00:49:29.630Z,75.72
2022-11-30T00:54:35.111Z,81.43
2022-11-30T00:59:37.825Z,80.25
2022-11-30T01:04:40.601Z,79.85
2022-11-30T01:09:44.760Z,75.15
2022-11-30T01:14:47.904Z,74.20
2022-11-30T01:19:51.201Z,74.68
2022-11-30T01:24:56.710Z,73.60
2022-11-30T01:29:59.620Z,74.90
2022-11-30T01:35:02.328Z,75.82
2022-11-30T01:40:07.941Z,72.75
2022-11-30T01:45:14.321Z,68.78
2022-11-30T01:50:21.411Z,69.80
2022-11-30T01:55:29.018Z,73.10
2022-11-30T02:00:31.843Z,73.50
2022-11-30T02:05:41.542Z,80.30
2022-11-30T02:10:51.239Z,81.60
2022-11-30T02:16:04.333Z,74.53
2022-11-30T02:21:14.829Z,80.68
2022-11-30T02:26:48.529Z,79.20
2022-11-30T02:31:58.015Z,82.85
2022-11-30T02:37:02.137Z,84.28
2022-11-30T02:42:05.094Z,79.47
2022-11-30T02:47:21.563Z,80.25
2022-11-30T02:52:27.325Z,87.90
2022-11-30T02:57:30.108Z,86.10
2022-11-30T03:02:34.450Z,86.13
2022-11-30T03:07:37.630Z,94.80
2022-11-30T03:12:40.415Z,88.68
2022-11-30T03:17:44.579Z,87.25
2022-11-30T03:22:47.590Z,85.55
2022-11-30T03:27:50.371Z,85.68
2022-11-30T03:32:54.537Z,87.97
2022-11-30T03:37:57.592Z,87.57
2022-11-30T03:43:00.367Z,88.63
2022-11-30T03:48:04.709Z,89.35
2022-11-30T03:53:07.458Z,89.60
2022-11-30T03:58:10.299Z,95.50
2022-11-30T04:03:14.579Z,102.10
2022-11-30T04:08:17.350Z,82.90
2022-11-30T04:13:20.192Z,84.93
2022-11-30T04:18:26.207Z,94.03
2022-11-30T04:23:31.486Z,86.13
2022-11-30T04:28:35.210Z,95.43
2022-11-30T04:33:39.414Z,84.18
2022-11-30T04:38:42.193Z,84.10
2022-11-30T04:43:45.033Z,85.35
2022-11-30T04:48:49.194Z,98.97
2022-11-30T04:53:51.979Z,89.18
2022-11-30T04:58:54.811Z,93.03
2022-11-30T05:04:00.243Z,89.18
2022-11-30T05:09:03.167Z,92.22
2022-11-30T05:14:06.392Z,85.95
2022-11-30T05:19:10.517Z,88.70
2022-11-30T05:24:13.640Z,85.55
2022-11-30T05:29:16.422Z,91.93
2022-11-30T05:34:20.555Z,88.55
2022-11-30T05:39:23.467Z,86.53
2022-11-30T05:44:27.339Z,93.60
2022-11-30T05:49:31.717Z,88.57
2022-11-30T05:54:34.915Z,85.80
2022-11-30T05:59:37.718Z,83.40
2022-11-30T06:04:42.145Z,85.65
2022-11-30T06:09:46.395Z,88.68
2022-11-30T06:14:50.817Z,85.18
2022-11-30T06:19:55.030Z,75.65
2022-11-30T06:24:57.764Z,69.18
2022-11-30T06:30:01.436Z,80.80
2022-11-30T06:35:06.118Z,74.20
2022-11-30T06:40:10.866Z,78.85
2022-11-30T06:45:13.730Z,87.22
2022-11-30T06:50:18.501Z,79.95
2022-11-30T06:55:21.349Z,72.95
2022-11-30T07:00:24.385Z,71.30
2022-11-30T07:05:29.320Z,81.78
2022-11-30T07:10:32.175Z,104.72
2022-11-30T07:15:34.892Z,85.35
2022-11-30T07:20:39.710Z,84.15
2022-11-30T07:26:00.287Z,93.38
2022-11-30T07:31:03.525Z,96.93
2022-11-30T07:36:08.343Z,85.00
2022-11-30T07:41:11.101Z,80.95
2022-11-30T07:46:15.831Z,84.50
2022-11-30T07:51:21.678Z,80.82
2022-11-30T07:56:24.981Z,79.20
2022-11-30T08:01:29.693Z,77.07
2022-11-30T08:06:34.064Z,71.07
2022-11-30T08:11:37.460Z,79.55
2022-11-30T08:16:40.496Z,81.00
2022-11-30T08:21:44.763Z,71.90
2022-11-30T08:26:47.477Z,65.03
2022-11-30T08:31:50.206Z,59.15
2022-11-30T08:36:54.288Z,62.78
2022-11-30T08:41:56.990Z,65.05
2022-11-30T08:46:59.857Z,60.63
2022-11-30T08:52:19.370Z,50.00
2022-11-30T08:57:22.588Z,54.55
2022-11-30T09:02:25.432Z,52.50
2022-11-30T09:07:30.878Z,53.10
2022-11-30T09:12:35.687Z,50.88
2022-11-30T09:17:38.452Z,56.90
2022-11-30T09:22:42.623Z,47.03
2022-11-30T09:27:45.384Z,48.60
2022-11-30T09:32:48.302Z,51.60
2022-11-30T09:37:53.903Z,49.13
2022-11-30T09:43:06.495Z,47.67
2022-11-30T09:48:22.857Z,46.20
2022-11-30T09:53:41.141Z,46.17
2022-11-30T09:58:48.991Z,46.95
2022-11-30T10:03:52.084Z,46.83
2022-11-30T10:09:08.562Z,44.67
2022-11-30T10:14:25.656Z,45.85
2022-11-30T10:19:47.906Z,39.03
2022-11-30T10:25:11.917Z,42.30
2022-11-30T10:30:17.988Z,40.88
2022-11-30T10:35:34.481Z,43.45
2022-11-30T10:40:45.133Z,40.25
2022-11-30T10:45:50.865Z,40.47
2022-11-30T10:50:54.378Z,40.22
2022-11-30T10:56:02.624Z,40.58
2022-11-30T11:01:07.839Z,44.20
2022-11-30T11:06:22.479Z,40.90
2022-11-30T11:11:34.471Z,43.00
2022-11-30T11:16:52.082Z,42.17
2022-11-30T11:21:55.077Z,44.55
2022-11-30T11:26:59.710Z,44.40
2022-11-30T11:32:24.784Z,43.03
2022-11-30T11:37:30.908Z,45.05
2022-11-30T11:42:41.949Z,48.88
2022-11-30T11:47:46.306Z,47.05
2022-11-30T11:52:49.047Z,48.60
2022-11-30T11:57:58.046Z,48.38
2022-11-30T12:03:08.841Z,54.45
2022-11-30T12:08:18.027Z,48.53
2022-11-30T12:13:24.772Z,47.05
2022-11-30T12:18:34.949Z,44.67
2022-11-30T12:23:55.994Z,44.45
2022-11-30T12:29:18.208Z,47.42
2022-11-30T12:34:31.425Z,43.33
2022-11-30T12:39:46.160Z,45.42
2022-11-30T12:44:59.846Z,52.38
2022-11-30T12:50:23.770Z,53.33
2022-11-30T12:55:34.199Z,51.72
2022-11-30T13:00:50.814Z,52.55
2022-11-30T13:05:58.918Z,50.22
2022-11-30T13:11:06.924Z,52.55
2022-11-30T13:16:11.199Z,54.17
2022-11-30T13:21:22.935Z,60.35
2022-11-30T13:26:32.493Z,60.22
2022-11-30T13:31:41.005Z,69.38
2022-11-30T13:36:45.719Z,63.30
2022-11-30T13:41:50.694Z,61.80
2022-11-30T13:46:54.924Z,58.25
2022-11-30T13:52:21.640Z,55.08
2022-11-30T13:57:54.347Z,67.55
2022-11-30T14:03:19.381Z,70.93
2022-11-30T14:08:40.064Z,72.78
2022-11-30T14:13:43.932Z,69.00
2022-11-30T14:18:49.099Z,72.18
2022-11-30T14:23:56.474Z,85.20
2022-11-30T14:29:04.948Z,78.65
2022-11-30T14:39:26.645Z,72.40
2022-11-30T14:44:42.637Z,81.30
2022-11-30T14:49:52.598Z,82.80
2022-11-30T14:55:05.586Z,83.68
2022-11-30T15:00:17.517Z,88.90
2022-11-30T15:05:26.739Z,82.93
2022-11-30T15:10:32.000Z,83.93
2022-11-30T15:15:38.773Z,79.60
2022-11-30T15:20:52.220Z,75.45
2022-11-30T15:25:58.485Z,80.20
2022-11-30T15:31:07.242Z,89.18
2022-11-30T15:36:27.931Z,91.25
2022-11-30T15:41:36.016Z,87.78
2022-11-30T15:46:46.377Z,86.57
2022-11-30T15:52:02.235Z,82.88
2022-11-30T15:57:09.124Z,86.90
2022-11-30T16:02:28.255Z,78.68
2022-11-30T16:12:36.515Z,78.78
2022-11-30T16:17:39.280Z,85.25
2022-11-30T16:22:44.828Z,83.38
2022-11-30T16:27:48.706Z,84.50
2022-11-30T16:32:51.865Z,81.15
2022-11-30T16:37:56.107Z,83.20
2022-11-30T16:42:58.956Z,76.97
2022-11-30T16:48:01.859Z,75.18
2022-11-30T16:53:06.609Z,78.55
2022-11-30T16:58:09.444Z,83.47
2022-11-30T17:03:20.879Z,82.82
2022-11-30T17:08:25.060Z,74.70
2022-11-30T17:13:28.199Z,75.38
2022-11-30T17:18:30.983Z,82.13
2022-11-30T17:23:37.207Z,82.47
2022-11-30T17:28:41.120Z,68.07
2022-11-30T17:33:48.142Z,77.90
2022-11-30T17:38:52.544Z,75.35
2022-11-30T17:43:55.403Z,72.60
2022-11-30T17:48:58.520Z,78.82
2022-11-30T17:54:03.072Z,83.03
2022-11-30T17:59:06.059Z,81.68
2022-11-30T18:04:09.057Z,91.68
2022-11-30T18:09:13.260Z,94.68
2022-11-30T18:14:16.271Z,93.90
2022-11-30T18:19:19.100Z,92.88
2022-11-30T18:24:25.493Z,93.95
2022-11-30T18:29:28.976Z,97.25
2022-11-30T18:34:31.892Z,98.18
2022-11-30T18:39:36.114Z,99.63
2022-11-30T18:44:38.870Z,109.25
2022-11-30T18:49:41.673Z,101.75
2022-11-30T18:54:46.281Z,106.97
2022-11-30T18:59:53.695Z,102.03
2022-11-30T19:04:56.877Z,103.47
2022-11-30T19:10:01.321Z,100.18
2022-11-30T19:15:07.505Z,98.53
2022-11-30T19:20:11.637Z,97.97
2022-11-30T19:25:19.191Z,102.88
2022-11-30T19:30:23.629Z,101.03
2022-11-30T19:35:26.594Z,113.57
2022-11-30T19:40:34.141Z,97.55
2022-11-30T19:45:37.151Z,96.60
2022-11-30T19:50:40.140Z,92.78
2022-11-30T19:55:44.435Z,92.22
2022-11-30T20:00:47.725Z,98.05
2022-11-30T20:05:50.886Z,100.43
2022-11-30T20:10:57.205Z,88.50
2022-11-30T20:16:14.250Z,86.28
2022-11-30T20:21:22.418Z,89.25
2022-11-30T20:26:29.957Z,84.97
2022-11-30T20:31:36.248Z,89.72
2022-11-30T20:36:42.173Z,89.07
2022-11-30T20:41:46.405Z,87.55
2022-11-30T20:46:51.303Z,91.18
2022-11-30T20:51:55.660Z,84.60
2022-11-30T20:57:01.605Z,87.20
2022-11-30T21:02:07.008Z,87.25
2022-11-30T21:07:14.508Z,86.60
2022-11-30T21:12:18.706Z,82.95
2022-11-30T21:17:21.940Z,91.65
2022-11-30T21:22:25.148Z,91.95
2022-11-30T21:27:31.344Z,89.57
2022-11-30T21:32:35.552Z,96.78
2022-11-30T21:37:38.515Z,87.63
2022-11-30T21:42:43.880Z,90.35
2022-11-30T21:47:46.788Z,87.30
2022-11-30T21:52:49.620Z,89.82
2022-11-30T21:57:56.096Z,86.60
2022-11-30T22:02:58.928Z,91.00
2022-11-30T22:08:04.283Z,87.57
2022-11-30T22:13:08.571Z,81.88
2022-11-30T22:18:15.383Z,90.65
2022-11-30T22:23:21.742Z,91.15
2022-11-30T22:28:38.903Z,85.65
2022-11-30T22:33:43.041Z,87.22
2022-11-30T22:38:46.855Z,81.70
2022-11-30T22:43:51.116Z,85.55
2022-11-30T22:48:54.373Z,84.65
2022-11-30T22:53:57.119Z,86.30
2022-11-30T22:59:01.797Z,81.72
2022-11-30T23:04:07.048Z,85.63
2022-11-30T23:09:13.327Z,78.80
2022-11-30T23:14:20.827Z,84.78
2022-11-30T23:19:23.740Z,82.18
2022-11-30T23:24:26.523Z,90.32
2022-11-30T23:29:32.717Z,82.50
2022-11-30T23:34:35.511Z,83.57
2022-11-30T23:39:41.369Z,80.93
2022-11-30T23:44:45.503Z,82.70
2022-11-30T23:49:51.816Z,85.15
2022-11-30T23:54:54.564Z,84.93
2022-11-30T23:59:58.638Z,82.97
